sensor_id;sensor_type;location;lat;lon;timestamp;temperature;humidity
18240;DHT22;9244;50.828;4.718;2023-10-19T00:00:40;15.70;99.90
18240;DHT22;9244;50.828;4.718;2023-10-19T00:03:10;15.70;99.90
18240;DHT22;9244;50.828;4.718;2023-10-19T00:05:37;15.80;99.90
18240;DHT22;9244;50.828;4.718;2023-10-19T00:08:04;15.70;99.90
18240;DHT22;9244;50.828;4.718;2023-10-19T00:10:45;15.70;99.90
18240;DHT22;9244;50.828;4.718;2023-10-19T00:13:14;15.70;99.90
18240;DHT22;9244;50.828;4.718;2023-10-19T00:15:42;15.70;99.90
18240;DHT22;9244;50.828;4.718;2023-10-19T00:18:17;15.60;99.90
18240;DHT22;9244;50.828;4.718;2023-10-19T00:20:45;15.70;99.90
18240;DHT22;9244;50.828;4.718;2023-10-19T00:23:14;15.70;99.90
18240;DHT22;9244;50.828;4.718;2023-10-19T00:25:44;15.70;99.90
18240;DHT22;9244;50.828;4.718;2023-10-19T00:28:15;15.80;99.90
18240;DHT22;9244;50.828;4.718;2023-10-19T00:30:43;15.70;99.90
18240;DHT22;9244;50.828;4.718;2023-10-19T00:33:10;15.80;99.90
18240;DHT22;9244;50.828;4.718;2023-10-19T00:35:48;15.80;99.90
18240;DHT22;9244;50.828;4.718;2023-10-19T00:38:26;15.70;99.90
18240;DHT22;9244;50.828;4.718;2023-10-19T00:40:55;15.80;99.90
18240;DHT22;9244;50.828;4.718;2023-10-19T00:43:35;15.70;99.90
18240;DHT22;9244;50.828;4.718;2023-10-19T00:46:18;15.80;99.90
18240;DHT22;9244;50.828;4.718;2023-10-19T00:49:04;15.80;99.90
18240;DHT22;9244;50.828;4.718;2023-10-19T00:51:40;15.70;99.90
18240;DHT22;9244;50.828;4.718;2023-10-19T00:54:30;15.70;99.90
18240;DHT22;9244;50.828;4.718;2023-10-19T00:57:07;15.70;99.90
18240;DHT22;9244;50.828;4.718;2023-10-19T00:59:38;15.70;99.90
18240;DHT22;9244;50.828;4.718;2023-10-19T01:02:24;15.60;99.90
18240;DHT22;9244;50.828;4.718;2023-10-19T01:04:53;15.60;99.90
18240;DHT22;9244;50.828;4.718;2023-10-19T01:07:28;15.70;99.90
18240;DHT22;9244;50.828;4.718;2023-10-19T01:09:59;15.60;99.90
18240;DHT22;9244;50.828;4.718;2023-10-19T01:12:26;15.60;99.90
18240;DHT22;9244;50.828;4.718;2023-10-19T01:15:10;15.60;99.90
18240;DHT22;9244;50.828;4.718;2023-10-19T01:17:47;15.60;99.90
18240;DHT22;9244;50.828;4.718;2023-10-19T01:20:24;15.70;99.90
18240;DHT22;9244;50.828;4.718;2023-10-19T01:23:01;15.70;99.90
18240;DHT22;9244;50.828;4.718;2023-10-19T01:28:10;15.60;99.90
18240;DHT22;9244;50.828;4.718;2023-10-19T01:30:37;15.60;99.90
18240;DHT22;9244;50.828;4.718;2023-10-19T01:33:04;15.50;99.90
18240;DHT22;9244;50.828;4.718;2023-10-19T01:35:33;15.50;99.90
18240;DHT22;9244;50.828;4.718;2023-10-19T01:38:18;15.60;99.90
18240;DHT22;9244;50.828;4.718;2023-10-19T01:40:44;15.60;99.90
18240;DHT22;9244;50.828;4.718;2023-10-19T01:43:12;15.60;99.90
18240;DHT22;9244;50.828;4.718;2023-10-19T01:45:47;15.60;99.90
18240;DHT22;9244;50.828;4.718;2023-10-19T01:48:13;15.50;99.90
18240;DHT22;9244;50.828;4.718;2023-10-19T01:50:40;15.50;99.90
18240;DHT22;9244;50.828;4.718;2023-10-19T01:53:07;15.60;99.90
18240;DHT22;9244;50.828;4.718;2023-10-19T01:55:42;15.50;99.90
18240;DHT22;9244;50.828;4.718;2023-10-19T01:58:09;15.50;99.90
18240;DHT22;9244;50.828;4.718;2023-10-19T02:00:35;15.50;99.90
18240;DHT22;9244;50.828;4.718;2023-10-19T02:03:11;15.50;99.90
18240;DHT22;9244;50.828;4.718;2023-10-19T02:05:37;15.50;99.90
18240;DHT22;9244;50.828;4.718;2023-10-19T02:08:07;15.50;99.90
18240;DHT22;9244;50.828;4.718;2023-10-19T02:10:36;15.50;99.90
18240;DHT22;9244;50.828;4.718;2023-10-19T02:13:03;15.50;99.90
18240;DHT22;9244;50.828;4.718;2023-10-19T02:15:33;15.50;99.90
18240;DHT22;9244;50.828;4.718;2023-10-19T02:18:02;15.50;99.90
18240;DHT22;9244;50.828;4.718;2023-10-19T02:20:28;15.50;99.90
18240;DHT22;9244;50.828;4.718;2023-10-19T02:22:55;15.50;99.90
18240;DHT22;9244;50.828;4.718;2023-10-19T02:25:25;15.40;99.90
18240;DHT22;9244;50.828;4.718;2023-10-19T02:27:54;15.30;99.90
18240;DHT22;9244;50.828;4.718;2023-10-19T02:30:19;15.30;99.90
18240;DHT22;9244;50.828;4.718;2023-10-19T02:32:45;15.30;99.90
18240;DHT22;9244;50.828;4.718;2023-10-19T02:35:13;15.40;99.90
18240;DHT22;9244;50.828;4.718;2023-10-19T02:37:40;15.40;99.90
18240;DHT22;9244;50.828;4.718;2023-10-19T02:40:06;15.30;99.90
18240;DHT22;9244;50.828;4.718;2023-10-19T02:42:46;15.30;99.90
18240;DHT22;9244;50.828;4.718;2023-10-19T02:45:17;15.20;99.90
18240;DHT22;9244;50.828;4.718;2023-10-19T02:47:44;15.20;99.90
18240;DHT22;9244;50.828;4.718;2023-10-19T02:50:10;15.10;99.90
18240;DHT22;9244;50.828;4.718;2023-10-19T02:52:42;15.10;99.90
18240;DHT22;9244;50.828;4.718;2023-10-19T02:55:09;15.10;99.90
18240;DHT22;9244;50.828;4.718;2023-10-19T02:57:36;15.00;99.90
18240;DHT22;9244;50.828;4.718;2023-10-19T03:00:05;14.90;99.90
18240;DHT22;9244;50.828;4.718;2023-10-19T03:02:39;14.90;99.90
18240;DHT22;9244;50.828;4.718;2023-10-19T03:05:05;14.80;99.90
18240;DHT22;9244;50.828;4.718;2023-10-19T03:07:42;14.80;99.90
18240;DHT22;9244;50.828;4.718;2023-10-19T03:10:11;14.80;99.90
18240;DHT22;9244;50.828;4.718;2023-10-19T03:12:50;14.80;99.90
18240;DHT22;9244;50.828;4.718;2023-10-19T03:15:17;14.80;99.90
18240;DHT22;9244;50.828;4.718;2023-10-19T03:17:46;14.70;99.90
18240;DHT22;9244;50.828;4.718;2023-10-19T03:20:11;14.70;99.90
18240;DHT22;9244;50.828;4.718;2023-10-19T03:22:37;14.60;99.90
18240;DHT22;9244;50.828;4.718;2023-10-19T03:25:07;14.60;99.90
18240;DHT22;9244;50.828;4.718;2023-10-19T03:27:51;14.60;99.90
18240;DHT22;9244;50.828;4.718;2023-10-19T03:30:18;14.60;99.90
18240;DHT22;9244;50.828;4.718;2023-10-19T03:32:44;14.60;99.90
18240;DHT22;9244;50.828;4.718;2023-10-19T03:35:11;14.60;99.90
18240;DHT22;9244;50.828;4.718;2023-10-19T03:37:41;14.70;99.90
18240;DHT22;9244;50.828;4.718;2023-10-19T03:40:08;14.70;99.90
18240;DHT22;9244;50.828;4.718;2023-10-19T03:42:35;14.80;99.90
18240;DHT22;9244;50.828;4.718;2023-10-19T03:45:07;14.80;99.90
18240;DHT22;9244;50.828;4.718;2023-10-19T03:47:39;14.80;99.90
18240;DHT22;9244;50.828;4.718;2023-10-19T03:50:09;14.80;99.90
18240;DHT22;9244;50.828;4.718;2023-10-19T03:52:40;14.80;99.90
18240;DHT22;9244;50.828;4.718;2023-10-19T03:55:07;14.80;99.90
18240;DHT22;9244;50.828;4.718;2023-10-19T03:57:45;14.80;99.90
18240;DHT22;9244;50.828;4.718;2023-10-19T04:00:17;14.70;99.90
18240;DHT22;9244;50.828;4.718;2023-10-19T04:02:44;14.80;99.90
18240;DHT22;9244;50.828;4.718;2023-10-19T04:05:11;14.80;99.90
18240;DHT22;9244;50.828;4.718;2023-10-19T04:07:40;14.80;99.90
18240;DHT22;9244;50.828;4.718;2023-10-19T04:10:07;14.80;99.90
18240;DHT22;9244;50.828;4.718;2023-10-19T04:12:38;14.80;99.90
18240;DHT22;9244;50.828;4.718;2023-10-19T04:15:08;14.80;99.90
18240;DHT22;9244;50.828;4.718;2023-10-19T04:17:46;14.80;99.90
18240;DHT22;9244;50.828;4.718;2023-10-19T04:20:13;14.80;99.90
18240;DHT22;9244;50.828;4.718;2023-10-19T04:22:45;14.80;99.90
18240;DHT22;9244;50.828;4.718;2023-10-19T04:25:12;14.80;99.90
18240;DHT22;9244;50.828;4.718;2023-10-19T04:27:40;14.80;99.90
18240;DHT22;9244;50.828;4.718;2023-10-19T04:30:17;14.80;99.90
18240;DHT22;9244;50.828;4.718;2023-10-19T04:32:47;14.70;99.90
18240;DHT22;9244;50.828;4.718;2023-10-19T04:35:13;14.80;99.90
18240;DHT22;9244;50.828;4.718;2023-10-19T04:37:40;14.80;99.90
18240;DHT22;9244;50.828;4.718;2023-10-19T04:40:09;14.80;99.90
18240;DHT22;9244;50.828;4.718;2023-10-19T04:42:35;14.80;99.90
18240;DHT22;9244;50.828;4.718;2023-10-19T04:45:03;14.80;99.90
18240;DHT22;9244;50.828;4.718;2023-10-19T04:47:29;14.80;99.90
18240;DHT22;9244;50.828;4.718;2023-10-19T04:49:54;14.80;99.90
18240;DHT22;9244;50.828;4.718;2023-10-19T04:52:21;14.80;99.90
18240;DHT22;9244;50.828;4.718;2023-10-19T04:54:46;14.70;99.90
18240;DHT22;9244;50.828;4.718;2023-10-19T04:57:12;14.80;99.90
18240;DHT22;9244;50.828;4.718;2023-10-19T04:59:38;14.80;99.90
18240;DHT22;9244;50.828;4.718;2023-10-19T05:02:03;14.80;99.90
18240;DHT22;9244;50.828;4.718;2023-10-19T05:04:31;14.80;99.90
18240;DHT22;9244;50.828;4.718;2023-10-19T05:06:56;14.80;99.90
18240;DHT22;9244;50.828;4.718;2023-10-19T05:09:22;14.80;99.90
18240;DHT22;9244;50.828;4.718;2023-10-19T05:11:48;14.80;99.90
18240;DHT22;9244;50.828;4.718;2023-10-19T05:14:13;14.80;99.90
18240;DHT22;9244;50.828;4.718;2023-10-19T05:16:40;14.80;99.90
18240;DHT22;9244;50.828;4.718;2023-10-19T05:19:05;14.80;99.90
18240;DHT22;9244;50.828;4.718;2023-10-19T05:21:31;14.80;99.90
18240;DHT22;9244;50.828;4.718;2023-10-19T05:23:57;14.90;99.90
18240;DHT22;9244;50.828;4.718;2023-10-19T05:26:26;14.90;99.90
18240;DHT22;9244;50.828;4.718;2023-10-19T05:28:51;14.90;99.90
18240;DHT22;9244;50.828;4.718;2023-10-19T05:31:17;14.90;99.90
18240;DHT22;9244;50.828;4.718;2023-10-19T05:33:43;14.90;99.90
18240;DHT22;9244;50.828;4.718;2023-10-19T05:36:09;14.90;99.90
18240;DHT22;9244;50.828;4.718;2023-10-19T05:38:34;14.90;99.90
18240;DHT22;9244;50.828;4.718;2023-10-19T05:41:00;14.90;99.90
18240;DHT22;9244;50.828;4.718;2023-10-19T05:43:26;14.90;99.90
18240;DHT22;9244;50.828;4.718;2023-10-19T05:45:53;14.90;99.90
18240;DHT22;9244;50.828;4.718;2023-10-19T05:48:20;14.90;99.90
18240;DHT22;9244;50.828;4.718;2023-10-19T05:50:46;14.90;99.90
18240;DHT22;9244;50.828;4.718;2023-10-19T05:53:11;14.90;99.90
18240;DHT22;9244;50.828;4.718;2023-10-19T05:55:37;14.80;99.90
18240;DHT22;9244;50.828;4.718;2023-10-19T05:58:05;14.90;99.90
18240;DHT22;9244;50.828;4.718;2023-10-19T06:00:30;14.90;99.90
18240;DHT22;9244;50.828;4.718;2023-10-19T06:02:57;14.90;99.90
18240;DHT22;9244;50.828;4.718;2023-10-19T06:05:25;14.80;99.90
18240;DHT22;9244;50.828;4.718;2023-10-19T06:07:51;14.90;99.90
18240;DHT22;9244;50.828;4.718;2023-10-19T06:10:19;14.80;99.90
18240;DHT22;9244;50.828;4.718;2023-10-19T06:12:47;14.80;99.90
18240;DHT22;9244;50.828;4.718;2023-10-19T06:15:14;14.80;99.90
18240;DHT22;9244;50.828;4.718;2023-10-19T06:17:42;14.80;99.90
18240;DHT22;9244;50.828;4.718;2023-10-19T06:20:09;14.80;99.90
18240;DHT22;9244;50.828;4.718;2023-10-19T06:22:49;14.70;99.90
18240;DHT22;9244;50.828;4.718;2023-10-19T06:25:24;14.70;99.90
18240;DHT22;9244;50.828;4.718;2023-10-19T06:27:50;14.70;99.90
18240;DHT22;9244;50.828;4.718;2023-10-19T06:30:17;14.70;99.90
18240;DHT22;9244;50.828;4.718;2023-10-19T06:32:46;14.70;99.90
18240;DHT22;9244;50.828;4.718;2023-10-19T06:35:13;14.70;99.90
18240;DHT22;9244;50.828;4.718;2023-10-19T06:37:38;14.70;99.90
18240;DHT22;9244;50.828;4.718;2023-10-19T06:40:06;14.70;99.90
18240;DHT22;9244;50.828;4.718;2023-10-19T06:42:32;14.70;99.90
18240;DHT22;9244;50.828;4.718;2023-10-19T06:44:57;14.70;99.90
18240;DHT22;9244;50.828;4.718;2023-10-19T06:47:23;14.70;99.90
18240;DHT22;9244;50.828;4.718;2023-10-19T06:49:49;14.70;99.90
18240;DHT22;9244;50.828;4.718;2023-10-19T06:52:15;14.60;99.90
18240;DHT22;9244;50.828;4.718;2023-10-19T06:54:41;14.60;99.90
18240;DHT22;9244;50.828;4.718;2023-10-19T06:57:07;14.50;99.90
18240;DHT22;9244;50.828;4.718;2023-10-19T06:59:36;14.60;99.90
18240;DHT22;9244;50.828;4.718;2023-10-19T07:02:02;14.60;99.90
18240;DHT22;9244;50.828;4.718;2023-10-19T07:04:29;14.60;99.90
18240;DHT22;9244;50.828;4.718;2023-10-19T07:06:55;14.60;99.90
18240;DHT22;9244;50.828;4.718;2023-10-19T07:09:20;14.70;99.90
18240;DHT22;9244;50.828;4.718;2023-10-19T07:11:46;14.80;99.90
18240;DHT22;9244;50.828;4.718;2023-10-19T07:14:13;14.80;99.90
18240;DHT22;9244;50.828;4.718;2023-10-19T07:16:41;14.80;99.90
18240;DHT22;9244;50.828;4.718;2023-10-19T07:19:07;14.90;99.90
18240;DHT22;9244;50.828;4.718;2023-10-19T07:21:35;15.00;99.90
18240;DHT22;9244;50.828;4.718;2023-10-19T07:24:02;15.10;99.90
18240;DHT22;9244;50.828;4.718;2023-10-19T07:26:31;15.10;99.90
18240;DHT22;9244;50.828;4.718;2023-10-19T07:28:59;15.00;99.90
18240;DHT22;9244;50.828;4.718;2023-10-19T07:31:25;15.00;99.90
18240;DHT22;9244;50.828;4.718;2023-10-19T07:33:53;14.90;99.90
18240;DHT22;9244;50.828;4.718;2023-10-19T07:36:21;15.00;99.90
18240;DHT22;9244;50.828;4.718;2023-10-19T07:38:46;15.00;99.90
18240;DHT22;9244;50.828;4.718;2023-10-19T07:41:13;15.10;99.90
18240;DHT22;9244;50.828;4.718;2023-10-19T07:43:39;15.10;99.90
18240;DHT22;9244;50.828;4.718;2023-10-19T07:46:05;15.20;99.90
18240;DHT22;9244;50.828;4.718;2023-10-19T07:48:30;15.30;99.90
18240;DHT22;9244;50.828;4.718;2023-10-19T07:50:56;15.50;99.90
18240;DHT22;9244;50.828;4.718;2023-10-19T07:53:22;15.80;99.90
18240;DHT22;9244;50.828;4.718;2023-10-19T07:55:50;16.00;99.90
18240;DHT22;9244;50.828;4.718;2023-10-19T07:58:16;16.10;99.90
18240;DHT22;9244;50.828;4.718;2023-10-19T08:00:42;16.30;99.90
18240;DHT22;9244;50.828;4.718;2023-10-19T08:03:08;16.30;99.90
18240;DHT22;9244;50.828;4.718;2023-10-19T08:05:36;16.20;99.90
18240;DHT22;9244;50.828;4.718;2023-10-19T08:08:02;16.20;99.90
18240;DHT22;9244;50.828;4.718;2023-10-19T08:10:30;16.20;99.90
18240;DHT22;9244;50.828;4.718;2023-10-19T08:12:55;16.20;99.90
18240;DHT22;9244;50.828;4.718;2023-10-19T08:15:21;16.10;99.90
18240;DHT22;9244;50.828;4.718;2023-10-19T08:17:51;16.00;99.90
18240;DHT22;9244;50.828;4.718;2023-10-19T08:20:19;16.00;99.90
18240;DHT22;9244;50.828;4.718;2023-10-19T08:22:57;16.00;99.90
18240;DHT22;9244;50.828;4.718;2023-10-19T08:25:23;16.00;99.90
18240;DHT22;9244;50.828;4.718;2023-10-19T08:27:49;16.00;99.90
18240;DHT22;9244;50.828;4.718;2023-10-19T08:30:20;16.00;99.90
18240;DHT22;9244;50.828;4.718;2023-10-19T08:32:47;16.00;99.90
18240;DHT22;9244;50.828;4.718;2023-10-19T08:35:17;16.10;99.90
18240;DHT22;9244;50.828;4.718;2023-10-19T08:37:46;16.20;99.90
18240;DHT22;9244;50.828;4.718;2023-10-19T08:40:12;16.20;99.90
18240;DHT22;9244;50.828;4.718;2023-10-19T08:42:45;16.30;99.90
18240;DHT22;9244;50.828;4.718;2023-10-19T08:45:11;16.40;99.90
18240;DHT22;9244;50.828;4.718;2023-10-19T08:50:14;16.50;99.90
18240;DHT22;9244;50.828;4.718;2023-10-19T08:52:41;16.40;99.90
18240;DHT22;9244;50.828;4.718;2023-10-19T08:55:08;16.40;99.90
18240;DHT22;9244;50.828;4.718;2023-10-19T08:57:36;16.40;99.90
18240;DHT22;9244;50.828;4.718;2023-10-19T09:00:04;16.30;99.90
18240;DHT22;9244;50.828;4.718;2023-10-19T09:02:32;16.30;99.90
18240;DHT22;9244;50.828;4.718;2023-10-19T09:04:58;16.30;99.90
18240;DHT22;9244;50.828;4.718;2023-10-19T09:07:25;16.40;99.90
18240;DHT22;9244;50.828;4.718;2023-10-19T09:09:56;16.40;99.90
18240;DHT22;9244;50.828;4.718;2023-10-19T09:12:22;16.40;99.90
18240;DHT22;9244;50.828;4.718;2023-10-19T09:14:48;16.40;99.90
18240;DHT22;9244;50.828;4.718;2023-10-19T09:17:15;16.40;99.90
18240;DHT22;9244;50.828;4.718;2023-10-19T09:19:46;16.40;99.90
18240;DHT22;9244;50.828;4.718;2023-10-19T09:22:14;16.50;99.90
18240;DHT22;9244;50.828;4.718;2023-10-19T09:24:51;16.50;99.90
18240;DHT22;9244;50.828;4.718;2023-10-19T09:27:19;16.50;99.90
18240;DHT22;9244;50.828;4.718;2023-10-19T09:29:46;16.50;99.90
18240;DHT22;9244;50.828;4.718;2023-10-19T09:32:12;16.60;99.90
18240;DHT22;9244;50.828;4.718;2023-10-19T09:34:41;16.50;99.90
18240;DHT22;9244;50.828;4.718;2023-10-19T09:37:10;16.50;99.90
18240;DHT22;9244;50.828;4.718;2023-10-19T09:39:36;16.50;99.90
18240;DHT22;9244;50.828;4.718;2023-10-19T09:42:11;16.60;99.90
18240;DHT22;9244;50.828;4.718;2023-10-19T09:44:44;16.50;99.90
18240;DHT22;9244;50.828;4.718;2023-10-19T09:47:12;16.60;99.90
18240;DHT22;9244;50.828;4.718;2023-10-19T09:49:41;16.70;99.90
18240;DHT22;9244;50.828;4.718;2023-10-19T09:52:09;16.80;99.90
18240;DHT22;9244;50.828;4.718;2023-10-19T09:57:16;17.10;99.90
18240;DHT22;9244;50.828;4.718;2023-10-19T09:59:46;17.10;99.90
18240;DHT22;9244;50.828;4.718;2023-10-19T10:02:16;17.10;99.90
18240;DHT22;9244;50.828;4.718;2023-10-19T10:04:43;17.00;99.90
18240;DHT22;9244;50.828;4.718;2023-10-19T10:07:13;17.00;99.90
18240;DHT22;9244;50.828;4.718;2023-10-19T10:09:41;17.00;99.90
18240;DHT22;9244;50.828;4.718;2023-10-19T10:12:26;17.00;99.90
18240;DHT22;9244;50.828;4.718;2023-10-19T10:15:04;17.00;99.90
18240;DHT22;9244;50.828;4.718;2023-10-19T10:17:37;17.00;99.90
18240;DHT22;9244;50.828;4.718;2023-10-19T10:22:42;17.20;99.90
18240;DHT22;9244;50.828;4.718;2023-10-19T10:25:25;17.20;99.90
18240;DHT22;9244;50.828;4.718;2023-10-19T10:27:53;17.40;99.90
18240;DHT22;9244;50.828;4.718;2023-10-19T10:30:19;17.60;99.90
18240;DHT22;9244;50.828;4.718;2023-10-19T10:32:47;17.80;99.90
18240;DHT22;9244;50.828;4.718;2023-10-19T10:38:05;18.00;99.90
18240;DHT22;9244;50.828;4.718;2023-10-19T10:40:45;17.80;99.90
18240;DHT22;9244;50.828;4.718;2023-10-19T10:43:11;17.80;99.90
18240;DHT22;9244;50.828;4.718;2023-10-19T10:45:37;17.70;99.90
18240;DHT22;9244;50.828;4.718;2023-10-19T10:48:03;17.60;99.90
18240;DHT22;9244;50.828;4.718;2023-10-19T10:50:29;17.50;99.90
18240;DHT22;9244;50.828;4.718;2023-10-19T10:52:55;17.50;99.90
18240;DHT22;9244;50.828;4.718;2023-10-19T10:55:24;17.40;99.90
18240;DHT22;9244;50.828;4.718;2023-10-19T10:57:54;17.30;99.90
18240;DHT22;9244;50.828;4.718;2023-10-19T11:00:20;17.20;99.90
18240;DHT22;9244;50.828;4.718;2023-10-19T11:03:02;17.10;99.90
18240;DHT22;9244;50.828;4.718;2023-10-19T11:05:30;16.90;99.90
18240;DHT22;9244;50.828;4.718;2023-10-19T11:08:14;16.80;99.90
18240;DHT22;9244;50.828;4.718;2023-10-19T11:10:43;16.80;99.90
18240;DHT22;9244;50.828;4.718;2023-10-19T11:13:11;16.70;99.90
18240;DHT22;9244;50.828;4.718;2023-10-19T11:15:39;16.50;99.90
18240;DHT22;9244;50.828;4.718;2023-10-19T11:18:28;16.40;99.90
18240;DHT22;9244;50.828;4.718;2023-10-19T11:20:54;16.30;99.90
18240;DHT22;9244;50.828;4.718;2023-10-19T11:23:43;16.10;99.90
18240;DHT22;9244;50.828;4.718;2023-10-19T11:26:11;15.90;99.90
18240;DHT22;9244;50.828;4.718;2023-10-19T11:28:38;15.90;99.90
18240;DHT22;9244;50.828;4.718;2023-10-19T11:31:21;15.90;99.90
18240;DHT22;9244;50.828;4.718;2023-10-19T11:33:52;16.00;99.90
18240;DHT22;9244;50.828;4.718;2023-10-19T11:36:20;16.00;99.90
18240;DHT22;9244;50.828;4.718;2023-10-19T11:38:47;16.00;99.90
18240;DHT22;9244;50.828;4.718;2023-10-19T11:41:15;16.10;99.90
18240;DHT22;9244;50.828;4.718;2023-10-19T11:43:42;16.10;99.90
18240;DHT22;9244;50.828;4.718;2023-10-19T11:46:09;16.20;99.90
18240;DHT22;9244;50.828;4.718;2023-10-19T11:48:35;16.30;99.90
18240;DHT22;9244;50.828;4.718;2023-10-19T11:51:05;16.40;99.90
18240;DHT22;9244;50.828;4.718;2023-10-19T11:53:32;16.40;99.90
18240;DHT22;9244;50.828;4.718;2023-10-19T11:56:03;16.40;99.90
18240;DHT22;9244;50.828;4.718;2023-10-19T11:58:30;16.50;99.90
18240;DHT22;9244;50.828;4.718;2023-10-19T12:00:59;16.50;99.90
18240;DHT22;9244;50.828;4.718;2023-10-19T12:03:24;16.50;99.90
18240;DHT22;9244;50.828;4.718;2023-10-19T12:05:51;16.40;99.90
18240;DHT22;9244;50.828;4.718;2023-10-19T12:08:18;16.40;99.90
18240;DHT22;9244;50.828;4.718;2023-10-19T12:10:44;16.40;99.90
18240;DHT22;9244;50.828;4.718;2023-10-19T12:13:10;16.30;99.90
18240;DHT22;9244;50.828;4.718;2023-10-19T12:15:36;16.30;99.90
18240;DHT22;9244;50.828;4.718;2023-10-19T12:18:01;16.20;99.90
18240;DHT22;9244;50.828;4.718;2023-10-19T12:20:29;16.20;99.90
18240;DHT22;9244;50.828;4.718;2023-10-19T12:22:57;15.90;99.90
18240;DHT22;9244;50.828;4.718;2023-10-19T12:25:24;15.80;99.90
18240;DHT22;9244;50.828;4.718;2023-10-19T12:27:58;15.70;99.90
18240;DHT22;9244;50.828;4.718;2023-10-19T12:30:24;15.80;99.90
18240;DHT22;9244;50.828;4.718;2023-10-19T12:32:52;15.70;99.90
18240;DHT22;9244;50.828;4.718;2023-10-19T12:35:18;15.70;99.90
18240;DHT22;9244;50.828;4.718;2023-10-19T12:37:50;15.80;99.90
18240;DHT22;9244;50.828;4.718;2023-10-19T12:40:19;15.80;99.90
18240;DHT22;9244;50.828;4.718;2023-10-19T12:43:04;15.80;99.90
18240;DHT22;9244;50.828;4.718;2023-10-19T12:45:33;15.90;99.90
18240;DHT22;9244;50.828;4.718;2023-10-19T12:48:05;16.00;99.90
18240;DHT22;9244;50.828;4.718;2023-10-19T12:50:33;16.10;99.90
18240;DHT22;9244;50.828;4.718;2023-10-19T12:52:59;16.40;99.90
18240;DHT22;9244;50.828;4.718;2023-10-19T12:55:26;16.50;99.90
18240;DHT22;9244;50.828;4.718;2023-10-19T12:57:57;16.60;99.90
18240;DHT22;9244;50.828;4.718;2023-10-19T13:00:23;16.90;99.90
18240;DHT22;9244;50.828;4.718;2023-10-19T13:02:50;17.50;99.90
18240;DHT22;9244;50.828;4.718;2023-10-19T13:05:17;17.90;99.90
18240;DHT22;9244;50.828;4.718;2023-10-19T13:07:46;18.50;99.90
18240;DHT22;9244;50.828;4.718;2023-10-19T13:10:12;18.70;99.90
18240;DHT22;9244;50.828;4.718;2023-10-19T13:12:38;19.00;99.90
18240;DHT22;9244;50.828;4.718;2023-10-19T13:15:04;19.40;99.90
18240;DHT22;9244;50.828;4.718;2023-10-19T13:17:41;19.70;99.90
18240;DHT22;9244;50.828;4.718;2023-10-19T13:20:08;19.80;99.90
18240;DHT22;9244;50.828;4.718;2023-10-19T13:22:53;19.70;99.90
18240;DHT22;9244;50.828;4.718;2023-10-19T13:25:18;19.90;99.90
18240;DHT22;9244;50.828;4.718;2023-10-19T13:27:54;20.00;99.90
18240;DHT22;9244;50.828;4.718;2023-10-19T13:30:19;19.80;99.90
18240;DHT22;9244;50.828;4.718;2023-10-19T13:32:45;19.70;99.90
18240;DHT22;9244;50.828;4.718;2023-10-19T13:35:12;19.70;99.90
18240;DHT22;9244;50.828;4.718;2023-10-19T13:37:38;19.70;99.90
18240;DHT22;9244;50.828;4.718;2023-10-19T13:40:04;20.00;99.90
18240;DHT22;9244;50.828;4.718;2023-10-19T13:42:32;19.90;99.90
18240;DHT22;9244;50.828;4.718;2023-10-19T13:44:57;19.60;99.90
18240;DHT22;9244;50.828;4.718;2023-10-19T13:47:23;19.90;99.90
18240;DHT22;9244;50.828;4.718;2023-10-19T13:49:49;19.70;99.90
18240;DHT22;9244;50.828;4.718;2023-10-19T13:52:15;19.10;99.90
18240;DHT22;9244;50.828;4.718;2023-10-19T13:54:41;18.90;99.90
18240;DHT22;9244;50.828;4.718;2023-10-19T13:57:06;19.00;99.90
18240;DHT22;9244;50.828;4.718;2023-10-19T13:59:32;18.90;99.90
18240;DHT22;9244;50.828;4.718;2023-10-19T14:01:59;18.70;99.90
18240;DHT22;9244;50.828;4.718;2023-10-19T14:04:24;18.40;99.90
18240;DHT22;9244;50.828;4.718;2023-10-19T14:06:51;18.00;99.90
18240;DHT22;9244;50.828;4.718;2023-10-19T14:09:17;17.80;99.90
18240;DHT22;9244;50.828;4.718;2023-10-19T14:11:43;18.00;99.90
18240;DHT22;9244;50.828;4.718;2023-10-19T14:14:10;18.20;99.90
18240;DHT22;9244;50.828;4.718;2023-10-19T14:16:36;18.40;99.90
18240;DHT22;9244;50.828;4.718;2023-10-19T14:19:02;19.00;99.90
18240;DHT22;9244;50.828;4.718;2023-10-19T14:21:29;18.90;99.90
18240;DHT22;9244;50.828;4.718;2023-10-19T14:23:55;19.40;99.90
18240;DHT22;9244;50.828;4.718;2023-10-19T14:26:21;19.00;99.90
18240;DHT22;9244;50.828;4.718;2023-10-19T14:28:46;19.10;99.90
18240;DHT22;9244;50.828;4.718;2023-10-19T14:31:12;19.30;99.90
18240;DHT22;9244;50.828;4.718;2023-10-19T14:33:39;19.30;99.90
18240;DHT22;9244;50.828;4.718;2023-10-19T14:36:05;19.40;99.90
18240;DHT22;9244;50.828;4.718;2023-10-19T14:38:31;19.40;99.90
18240;DHT22;9244;50.828;4.718;2023-10-19T14:40:57;19.30;99.90
18240;DHT22;9244;50.828;4.718;2023-10-19T14:43:23;19.20;99.90
18240;DHT22;9244;50.828;4.718;2023-10-19T14:45:51;19.30;99.90
18240;DHT22;9244;50.828;4.718;2023-10-19T14:48:16;19.70;99.90
18240;DHT22;9244;50.828;4.718;2023-10-19T14:50:44;19.70;99.90
18240;DHT22;9244;50.828;4.718;2023-10-19T14:53:11;19.60;99.90
18240;DHT22;9244;50.828;4.718;2023-10-19T14:55:37;19.50;99.90
18240;DHT22;9244;50.828;4.718;2023-10-19T14:58:03;19.80;99.90
18240;DHT22;9244;50.828;4.718;2023-10-19T15:00:31;19.90;99.90
18240;DHT22;9244;50.828;4.718;2023-10-19T15:03:03;19.60;99.90
18240;DHT22;9244;50.828;4.718;2023-10-19T15:05:36;19.10;99.90
18240;DHT22;9244;50.828;4.718;2023-10-19T15:08:03;18.60;99.90
18240;DHT22;9244;50.828;4.718;2023-10-19T15:10:33;18.20;99.90
18240;DHT22;9244;50.828;4.718;2023-10-19T15:12:59;18.10;99.90
18240;DHT22;9244;50.828;4.718;2023-10-19T15:15:26;17.90;99.90
18240;DHT22;9244;50.828;4.718;2023-10-19T15:17:52;17.80;99.90
18240;DHT22;9244;50.828;4.718;2023-10-19T15:20:20;17.80;99.90
18240;DHT22;9244;50.828;4.718;2023-10-19T15:22:47;17.80;99.90
18240;DHT22;9244;50.828;4.718;2023-10-19T15:25:14;17.80;99.90
18240;DHT22;9244;50.828;4.718;2023-10-19T15:27:43;17.80;99.90
18240;DHT22;9244;50.828;4.718;2023-10-19T15:30:10;17.80;99.90
18240;DHT22;9244;50.828;4.718;2023-10-19T15:32:39;17.80;99.90
18240;DHT22;9244;50.828;4.718;2023-10-19T15:35:12;17.80;99.90
18240;DHT22;9244;50.828;4.718;2023-10-19T15:37:40;17.80;99.90
18240;DHT22;9244;50.828;4.718;2023-10-19T15:40:07;17.70;99.90
18240;DHT22;9244;50.828;4.718;2023-10-19T15:42:33;17.70;99.90
18240;DHT22;9244;50.828;4.718;2023-10-19T15:45:02;17.60;99.90
18240;DHT22;9244;50.828;4.718;2023-10-19T15:47:28;17.60;99.90
18240;DHT22;9244;50.828;4.718;2023-10-19T15:49:54;17.60;99.90
18240;DHT22;9244;50.828;4.718;2023-10-19T15:52:24;17.60;99.90
18240;DHT22;9244;50.828;4.718;2023-10-19T15:54:51;17.50;99.90
18240;DHT22;9244;50.828;4.718;2023-10-19T15:57:18;17.50;99.90
18240;DHT22;9244;50.828;4.718;2023-10-19T15:59:44;17.40;99.90
18240;DHT22;9244;50.828;4.718;2023-10-19T16:02:11;17.40;99.90
18240;DHT22;9244;50.828;4.718;2023-10-19T16:04:41;17.50;99.90
18240;DHT22;9244;50.828;4.718;2023-10-19T16:07:11;17.50;99.90